sensor_id;sensor_type;location;lat;lon;timestamp;temperature;humidity
24148;DHT22;12309;51.450;-2.624;2023-05-07T00:01:49;12.20;99.90
24148;DHT22;12309;51.450;-2.624;2023-05-07T00:04:15;12.20;99.90
24148;DHT22;12309;51.450;-2.624;2023-05-07T00:06:40;12.20;99.90
24148;DHT22;12309;51.450;-2.624;2023-05-07T00:09:06;12.20;99.90
24148;DHT22;12309;51.450;-2.624;2023-05-07T00:11:33;12.20;99.90
24148;DHT22;12309;51.450;-2.624;2023-05-07T00:13:58;12.20;99.90
24148;DHT22;12309;51.450;-2.624;2023-05-07T00:16:24;12.20;99.90
24148;DHT22;12309;51.450;-2.624;2023-05-07T00:18:50;12.10;99.90
24148;DHT22;12309;51.450;-2.624;2023-05-07T00:21:16;12.10;99.90
24148;DHT22;12309;51.450;-2.624;2023-05-07T00:23:41;12.10;99.90
24148;DHT22;12309;51.450;-2.624;2023-05-07T00:26:07;12.10;99.90
24148;DHT22;12309;51.450;-2.624;2023-05-07T00:28:33;12.10;99.90
24148;DHT22;12309;51.450;-2.624;2023-05-07T00:30:58;12.10;99.90
24148;DHT22;12309;51.450;-2.624;2023-05-07T00:33:24;12.00;99.90
24148;DHT22;12309;51.450;-2.624;2023-05-07T00:35:52;12.00;99.90
24148;DHT22;12309;51.450;-2.624;2023-05-07T00:38:17;12.00;99.90
24148;DHT22;12309;51.450;-2.624;2023-05-07T00:40:43;12.00;99.90
24148;DHT22;12309;51.450;-2.624;2023-05-07T00:43:08;11.90;99.90
24148;DHT22;12309;51.450;-2.624;2023-05-07T00:45:34;11.90;99.90
24148;DHT22;12309;51.450;-2.624;2023-05-07T00:48:01;11.90;99.90
24148;DHT22;12309;51.450;-2.624;2023-05-07T00:50:28;11.90;99.90
24148;DHT22;12309;51.450;-2.624;2023-05-07T00:52:54;11.90;99.90
24148;DHT22;12309;51.450;-2.624;2023-05-07T00:55:21;12.20;99.90
24148;DHT22;12309;51.450;-2.624;2023-05-07T00:57:46;11.90;99.90
24148;DHT22;12309;51.450;-2.624;2023-05-07T01:00:12;11.90;99.90
24148;DHT22;12309;51.450;-2.624;2023-05-07T01:02:42;10.80;99.90
24148;DHT22;12309;51.450;-2.624;2023-05-07T01:05:14;11.90;99.90
24148;DHT22;12309;51.450;-2.624;2023-05-07T01:07:42;11.90;99.90
24148;DHT22;12309;51.450;-2.624;2023-05-07T01:10:08;11.80;99.90
24148;DHT22;12309;51.450;-2.624;2023-05-07T01:12:35;11.80;99.90
24148;DHT22;12309;51.450;-2.624;2023-05-07T01:15:02;11.90;99.90
24148;DHT22;12309;51.450;-2.624;2023-05-07T01:17:28;11.90;99.90
24148;DHT22;12309;51.450;-2.624;2023-05-07T01:19:54;11.90;99.90
24148;DHT22;12309;51.450;-2.624;2023-05-07T01:22:33;12.00;99.90
24148;DHT22;12309;51.450;-2.624;2023-05-07T01:24:59;12.00;99.90
24148;DHT22;12309;51.450;-2.624;2023-05-07T01:27:27;12.10;99.90
24148;DHT22;12309;51.450;-2.624;2023-05-07T01:29:52;12.10;99.90
24148;DHT22;12309;51.450;-2.624;2023-05-07T01:32:32;12.20;99.90
24148;DHT22;12309;51.450;-2.624;2023-05-07T01:35:00;12.10;99.90
24148;DHT22;12309;51.450;-2.624;2023-05-07T01:37:26;12.20;99.90
24148;DHT22;12309;51.450;-2.624;2023-05-07T01:39:52;15.20;99.90
24148;DHT22;12309;51.450;-2.624;2023-05-07T01:42:19;12.20;99.90
24148;DHT22;12309;51.450;-2.624;2023-05-07T01:44:45;12.20;99.90
24148;DHT22;12309;51.450;-2.624;2023-05-07T01:47:12;12.20;99.90
24148;DHT22;12309;51.450;-2.624;2023-05-07T01:49:39;12.20;99.90
24148;DHT22;12309;51.450;-2.624;2023-05-07T01:52:05;12.20;99.90
24148;DHT22;12309;51.450;-2.624;2023-05-07T01:54:30;12.20;99.90
24148;DHT22;12309;51.450;-2.624;2023-05-07T01:56:57;12.30;99.90
24148;DHT22;12309;51.450;-2.624;2023-05-07T01:59:22;12.30;99.90
24148;DHT22;12309;51.450;-2.624;2023-05-07T02:01:48;12.30;99.90
24148;DHT22;12309;51.450;-2.624;2023-05-07T02:04:14;12.20;99.90
24148;DHT22;12309;51.450;-2.624;2023-05-07T02:06:40;12.20;99.90
24148;DHT22;12309;51.450;-2.624;2023-05-07T02:09:05;12.20;99.90
24148;DHT22;12309;51.450;-2.624;2023-05-07T02:11:31;12.10;99.90
24148;DHT22;12309;51.450;-2.624;2023-05-07T02:13:56;12.30;99.90
24148;DHT22;12309;51.450;-2.624;2023-05-07T02:16:22;12.30;99.90
24148;DHT22;12309;51.450;-2.624;2023-05-07T02:18:49;12.30;99.90
24148;DHT22;12309;51.450;-2.624;2023-05-07T02:21:14;12.30;99.90
24148;DHT22;12309;51.450;-2.624;2023-05-07T02:23:40;12.30;99.90
24148;DHT22;12309;51.450;-2.624;2023-05-07T02:26:06;12.30;99.90
24148;DHT22;12309;51.450;-2.624;2023-05-07T02:28:31;12.30;99.90
24148;DHT22;12309;51.450;-2.624;2023-05-07T02:30:57;12.20;99.90
24148;DHT22;12309;51.450;-2.624;2023-05-07T02:33:24;12.20;99.90
24148;DHT22;12309;51.450;-2.624;2023-05-07T02:35:50;12.20;99.90
24148;DHT22;12309;51.450;-2.624;2023-05-07T02:38:17;12.20;99.90
24148;DHT22;12309;51.450;-2.624;2023-05-07T02:40:43;12.10;99.90
24148;DHT22;12309;51.450;-2.624;2023-05-07T02:43:08;12.20;99.90
24148;DHT22;12309;51.450;-2.624;2023-05-07T02:45:34;12.20;99.90
24148;DHT22;12309;51.450;-2.624;2023-05-07T02:48:00;12.20;99.90
24148;DHT22;12309;51.450;-2.624;2023-05-07T02:50:25;12.10;99.90
24148;DHT22;12309;51.450;-2.624;2023-05-07T02:52:52;12.20;99.90
24148;DHT22;12309;51.450;-2.624;2023-05-07T02:55:18;12.20;99.90
24148;DHT22;12309;51.450;-2.624;2023-05-07T02:57:43;12.20;99.90
24148;DHT22;12309;51.450;-2.624;2023-05-07T03:00:14;12.20;99.90
24148;DHT22;12309;51.450;-2.624;2023-05-07T03:02:40;12.10;99.90
24148;DHT22;12309;51.450;-2.624;2023-05-07T03:05:06;12.20;99.90
24148;DHT22;12309;51.450;-2.624;2023-05-07T03:07:32;12.20;99.90
24148;DHT22;12309;51.450;-2.624;2023-05-07T03:09:57;12.10;99.90
24148;DHT22;12309;51.450;-2.624;2023-05-07T03:12:23;12.10;99.90
24148;DHT22;12309;51.450;-2.624;2023-05-07T03:14:48;12.20;99.90
24148;DHT22;12309;51.450;-2.624;2023-05-07T03:17:14;12.20;99.90
24148;DHT22;12309;51.450;-2.624;2023-05-07T03:19:41;12.20;99.90
24148;DHT22;12309;51.450;-2.624;2023-05-07T03:22:07;12.20;99.90
24148;DHT22;12309;51.450;-2.624;2023-05-07T03:24:32;12.20;99.90
24148;DHT22;12309;51.450;-2.624;2023-05-07T03:26:58;12.10;99.90
24148;DHT22;12309;51.450;-2.624;2023-05-07T03:29:23;12.10;99.90
24148;DHT22;12309;51.450;-2.624;2023-05-07T03:31:49;12.10;99.90
24148;DHT22;12309;51.450;-2.624;2023-05-07T03:34:15;12.10;99.90
24148;DHT22;12309;51.450;-2.624;2023-05-07T03:36:42;12.10;99.90
24148;DHT22;12309;51.450;-2.624;2023-05-07T03:39:08;12.10;99.90
24148;DHT22;12309;51.450;-2.624;2023-05-07T03:41:33;12.10;99.90
24148;DHT22;12309;51.450;-2.624;2023-05-07T03:43:59;12.10;99.90
24148;DHT22;12309;51.450;-2.624;2023-05-07T03:46:25;12.10;99.90
24148;DHT22;12309;51.450;-2.624;2023-05-07T03:48:51;12.10;99.90
24148;DHT22;12309;51.450;-2.624;2023-05-07T03:51:17;11.90;99.90
24148;DHT22;12309;51.450;-2.624;2023-05-07T03:53:43;11.90;99.90
24148;DHT22;12309;51.450;-2.624;2023-05-07T03:56:09;12.00;99.90
24148;DHT22;12309;51.450;-2.624;2023-05-07T03:58:34;12.40;99.90
24148;DHT22;12309;51.450;-2.624;2023-05-07T04:01:00;12.00;99.90
24148;DHT22;12309;51.450;-2.624;2023-05-07T04:03:26;11.80;99.90
24148;DHT22;12309;51.450;-2.624;2023-05-07T04:05:51;12.00;99.90
24148;DHT22;12309;51.450;-2.624;2023-05-07T04:08:17;11.90;99.90
24148;DHT22;12309;51.450;-2.624;2023-05-07T04:10:42;11.90;99.90
24148;DHT22;12309;51.450;-2.624;2023-05-07T04:13:08;11.90;99.90
24148;DHT22;12309;51.450;-2.624;2023-05-07T04:15:35;11.80;99.90
24148;DHT22;12309;51.450;-2.624;2023-05-07T04:18:01;11.80;99.90
24148;DHT22;12309;51.450;-2.624;2023-05-07T04:20:27;11.70;99.90
24148;DHT22;12309;51.450;-2.624;2023-05-07T04:22:52;11.80;99.90
24148;DHT22;12309;51.450;-2.624;2023-05-07T04:25:18;11.70;99.90
24148;DHT22;12309;51.450;-2.624;2023-05-07T04:27:43;11.70;99.90
24148;DHT22;12309;51.450;-2.624;2023-05-07T04:30:09;11.70;99.90
24148;DHT22;12309;51.450;-2.624;2023-05-07T04:32:35;11.70;99.90
24148;DHT22;12309;51.450;-2.624;2023-05-07T04:37:28;11.60;99.90
24148;DHT22;12309;51.450;-2.624;2023-05-07T04:39:54;11.60;99.90
24148;DHT22;12309;51.450;-2.624;2023-05-07T04:42:19;11.60;99.90
24148;DHT22;12309;51.450;-2.624;2023-05-07T04:44:45;11.60;99.90
24148;DHT22;12309;51.450;-2.624;2023-05-07T04:47:11;11.70;99.90
24148;DHT22;12309;51.450;-2.624;2023-05-07T04:49:38;11.70;99.90
24148;DHT22;12309;51.450;-2.624;2023-05-07T04:52:04;11.70;99.90
24148;DHT22;12309;51.450;-2.624;2023-05-07T04:54:29;11.60;99.90
24148;DHT22;12309;51.450;-2.624;2023-05-07T04:56:55;11.60;99.90
24148;DHT22;12309;51.450;-2.624;2023-05-07T04:59:21;11.70;99.90
24148;DHT22;12309;51.450;-2.624;2023-05-07T05:01:47;11.60;99.90
24148;DHT22;12309;51.450;-2.624;2023-05-07T05:04:12;11.70;99.90
24148;DHT22;12309;51.450;-2.624;2023-05-07T05:06:38;11.60;99.90
24148;DHT22;12309;51.450;-2.624;2023-05-07T05:09:04;11.70;99.90
24148;DHT22;12309;51.450;-2.624;2023-05-07T05:11:30;11.70;99.90
24148;DHT22;12309;51.450;-2.624;2023-05-07T05:13:56;11.70;99.90
24148;DHT22;12309;51.450;-2.624;2023-05-07T05:16:22;11.70;99.90
24148;DHT22;12309;51.450;-2.624;2023-05-07T05:18:48;11.60;99.90
24148;DHT22;12309;51.450;-2.624;2023-05-07T05:21:13;12.00;99.90
24148;DHT22;12309;51.450;-2.624;2023-05-07T05:23:39;11.70;99.90
24148;DHT22;12309;51.450;-2.624;2023-05-07T05:26:05;11.70;99.90
24148;DHT22;12309;51.450;-2.624;2023-05-07T05:28:30;11.60;99.90
24148;DHT22;12309;51.450;-2.624;2023-05-07T05:30:56;11.80;99.90
24148;DHT22;12309;51.450;-2.624;2023-05-07T05:33:22;11.70;99.90
24148;DHT22;12309;51.450;-2.624;2023-05-07T05:35:47;11.70;99.90
24148;DHT22;12309;51.450;-2.624;2023-05-07T05:38:13;11.70;99.90
24148;DHT22;12309;51.450;-2.624;2023-05-07T05:40:39;11.60;99.90
24148;DHT22;12309;51.450;-2.624;2023-05-07T05:43:05;11.60;99.90
24148;DHT22;12309;51.450;-2.624;2023-05-07T05:45:31;11.70;99.90
24148;DHT22;12309;51.450;-2.624;2023-05-07T05:47:57;11.70;99.90
24148;DHT22;12309;51.450;-2.624;2023-05-07T05:50:23;11.50;99.90
24148;DHT22;12309;51.450;-2.624;2023-05-07T05:52:48;11.70;99.90
24148;DHT22;12309;51.450;-2.624;2023-05-07T05:55:14;11.60;99.90
24148;DHT22;12309;51.450;-2.624;2023-05-07T05:57:40;11.70;99.90
24148;DHT22;12309;51.450;-2.624;2023-05-07T06:00:06;11.60;99.90
24148;DHT22;12309;51.450;-2.624;2023-05-07T06:02:33;11.80;99.90
24148;DHT22;12309;51.450;-2.624;2023-05-07T06:04:58;11.80;99.90
24148;DHT22;12309;51.450;-2.624;2023-05-07T06:07:24;11.80;99.90
24148;DHT22;12309;51.450;-2.624;2023-05-07T06:09:50;11.80;99.90
24148;DHT22;12309;51.450;-2.624;2023-05-07T06:14:44;11.60;99.90
24148;DHT22;12309;51.450;-2.624;2023-05-07T06:17:10;11.80;99.90
24148;DHT22;12309;51.450;-2.624;2023-05-07T06:22:01;11.90;99.90
24148;DHT22;12309;51.450;-2.624;2023-05-07T06:24:27;11.90;99.90
24148;DHT22;12309;51.450;-2.624;2023-05-07T06:26:53;11.90;99.90
24148;DHT22;12309;51.450;-2.624;2023-05-07T06:29:19;12.00;99.90
24148;DHT22;12309;51.450;-2.624;2023-05-07T06:31:45;12.10;99.90
24148;DHT22;12309;51.450;-2.624;2023-05-07T06:34:10;12.10;99.90
24148;DHT22;12309;51.450;-2.624;2023-05-07T06:36:40;12.10;99.90
24148;DHT22;12309;51.450;-2.624;2023-05-07T06:39:05;12.10;99.90
24148;DHT22;12309;51.450;-2.624;2023-05-07T06:41:31;12.10;99.90
24148;DHT22;12309;51.450;-2.624;2023-05-07T06:43:57;12.10;99.90
24148;DHT22;12309;51.450;-2.624;2023-05-07T06:46:22;12.10;99.90
24148;DHT22;12309;51.450;-2.624;2023-05-07T06:48:48;12.10;99.90
24148;DHT22;12309;51.450;-2.624;2023-05-07T06:51:13;12.20;99.90
24148;DHT22;12309;51.450;-2.624;2023-05-07T06:53:39;12.20;99.90
24148;DHT22;12309;51.450;-2.624;2023-05-07T06:56:05;12.40;99.90
24148;DHT22;12309;51.450;-2.624;2023-05-07T06:58:31;12.40;99.90
24148;DHT22;12309;51.450;-2.624;2023-05-07T07:00:57;12.50;99.90
24148;DHT22;12309;51.450;-2.624;2023-05-07T07:03:22;12.50;99.90
24148;DHT22;12309;51.450;-2.624;2023-05-07T07:05:52;12.40;99.90
24148;DHT22;12309;51.450;-2.624;2023-05-07T07:08:17;12.80;99.90
24148;DHT22;12309;51.450;-2.624;2023-05-07T07:10:43;12.60;99.90
24148;DHT22;12309;51.450;-2.624;2023-05-07T07:13:08;12.70;99.90
24148;DHT22;12309;51.450;-2.624;2023-05-07T07:15:34;12.90;99.90
24148;DHT22;12309;51.450;-2.624;2023-05-07T07:18:00;13.00;99.90
24148;DHT22;12309;51.450;-2.624;2023-05-07T07:20:26;13.00;99.90
24148;DHT22;12309;51.450;-2.624;2023-05-07T07:22:51;13.10;99.90
24148;DHT22;12309;51.450;-2.624;2023-05-07T07:25:17;13.30;99.90
24148;DHT22;12309;51.450;-2.624;2023-05-07T07:27:42;13.40;99.90
24148;DHT22;12309;51.450;-2.624;2023-05-07T07:30:08;13.60;99.90
24148;DHT22;12309;51.450;-2.624;2023-05-07T07:32:34;13.70;99.90
24148;DHT22;12309;51.450;-2.624;2023-05-07T07:35:00;13.80;99.90
24148;DHT22;12309;51.450;-2.624;2023-05-07T07:37:26;14.00;99.90
24148;DHT22;12309;51.450;-2.624;2023-05-07T07:39:52;14.00;99.90
24148;DHT22;12309;51.450;-2.624;2023-05-07T07:42:18;14.20;99.90
24148;DHT22;12309;51.450;-2.624;2023-05-07T07:44:43;14.30;99.90
24148;DHT22;12309;51.450;-2.624;2023-05-07T07:47:09;13.40;99.90
24148;DHT22;12309;51.450;-2.624;2023-05-07T07:49:35;14.20;99.90
24148;DHT22;12309;51.450;-2.624;2023-05-07T07:52:01;14.30;99.90
24148;DHT22;12309;51.450;-2.624;2023-05-07T07:54:27;14.50;99.90
24148;DHT22;12309;51.450;-2.624;2023-05-07T07:56:52;14.50;99.90
24148;DHT22;12309;51.450;-2.624;2023-05-07T07:59:18;14.60;99.90
24148;DHT22;12309;51.450;-2.624;2023-05-07T08:01:44;14.50;99.90
24148;DHT22;12309;51.450;-2.624;2023-05-07T08:04:10;14.50;99.90
24148;DHT22;12309;51.450;-2.624;2023-05-07T08:06:36;14.60;99.90
24148;DHT22;12309;51.450;-2.624;2023-05-07T08:09:02;14.70;99.90
24148;DHT22;12309;51.450;-2.624;2023-05-07T08:11:28;15.60;99.90
24148;DHT22;12309;51.450;-2.624;2023-05-07T08:13:54;15.10;99.90
24148;DHT22;12309;51.450;-2.624;2023-05-07T08:16:20;15.10;99.90
24148;DHT22;12309;51.450;-2.624;2023-05-07T08:18:46;15.30;99.90
24148;DHT22;12309;51.450;-2.624;2023-05-07T08:21:11;15.20;99.90
24148;DHT22;12309;51.450;-2.624;2023-05-07T08:23:37;15.30;99.90
24148;DHT22;12309;51.450;-2.624;2023-05-07T08:26:02;15.20;99.90
24148;DHT22;12309;51.450;-2.624;2023-05-07T08:28:28;15.00;99.90
24148;DHT22;12309;51.450;-2.624;2023-05-07T08:30:54;15.10;99.90
24148;DHT22;12309;51.450;-2.624;2023-05-07T08:33:20;15.10;99.90
24148;DHT22;12309;51.450;-2.624;2023-05-07T08:38:11;15.40;99.90
24148;DHT22;12309;51.450;-2.624;2023-05-07T08:40:38;15.30;99.90
24148;DHT22;12309;51.450;-2.624;2023-05-07T08:43:08;15.20;99.90
24148;DHT22;12309;51.450;-2.624;2023-05-07T08:45:34;15.20;99.90
24148;DHT22;12309;51.450;-2.624;2023-05-07T08:48:02;15.40;99.90
24148;DHT22;12309;51.450;-2.624;2023-05-07T08:50:30;15.70;99.90
24148;DHT22;12309;51.450;-2.624;2023-05-07T08:52:56;15.70;99.90
24148;DHT22;12309;51.450;-2.624;2023-05-07T08:55:23;15.80;99.90
24148;DHT22;12309;51.450;-2.624;2023-05-07T08:57:49;15.90;99.90
24148;DHT22;12309;51.450;-2.624;2023-05-07T09:00:15;15.90;99.90
24148;DHT22;12309;51.450;-2.624;2023-05-07T09:02:41;15.60;99.90
24148;DHT22;12309;51.450;-2.624;2023-05-07T09:05:07;15.60;99.90
24148;DHT22;12309;51.450;-2.624;2023-05-07T09:07:34;15.50;99.90
24148;DHT22;12309;51.450;-2.624;2023-05-07T09:10:04;15.90;99.90
24148;DHT22;12309;51.450;-2.624;2023-05-07T09:12:30;16.60;99.90
24148;DHT22;12309;51.450;-2.624;2023-05-07T09:14:56;17.20;99.90
24148;DHT22;12309;51.450;-2.624;2023-05-07T09:17:22;17.10;99.90
24148;DHT22;12309;51.450;-2.624;2023-05-07T09:19:47;17.20;99.90
24148;DHT22;12309;51.450;-2.624;2023-05-07T09:22:13;17.60;99.90
24148;DHT22;12309;51.450;-2.624;2023-05-07T09:24:39;16.80;99.90
24148;DHT22;12309;51.450;-2.624;2023-05-07T09:27:05;16.70;99.90
24148;DHT22;12309;51.450;-2.624;2023-05-07T09:29:31;16.60;99.90
24148;DHT22;12309;51.450;-2.624;2023-05-07T09:32:07;16.60;99.90
24148;DHT22;12309;51.450;-2.624;2023-05-07T09:34:34;16.60;99.90
24148;DHT22;12309;51.450;-2.624;2023-05-07T09:37:04;16.90;99.90
24148;DHT22;12309;51.450;-2.624;2023-05-07T09:42:06;16.60;99.90
24148;DHT22;12309;51.450;-2.624;2023-05-07T09:44:32;16.50;99.90
24148;DHT22;12309;51.450;-2.624;2023-05-07T09:47:00;16.70;99.90
24148;DHT22;12309;51.450;-2.624;2023-05-07T09:49:29;16.50;99.90
24148;DHT22;12309;51.450;-2.624;2023-05-07T09:51:56;16.30;99.90
24148;DHT22;12309;51.450;-2.624;2023-05-07T09:54:24;16.80;99.90
24148;DHT22;12309;51.450;-2.624;2023-05-07T09:56:52;16.70;99.90
24148;DHT22;12309;51.450;-2.624;2023-05-07T09:59:18;16.70;99.90
24148;DHT22;12309;51.450;-2.624;2023-05-07T10:01:45;17.00;99.90
24148;DHT22;12309;51.450;-2.624;2023-05-07T10:04:12;17.60;99.90
24148;DHT22;12309;51.450;-2.624;2023-05-07T10:06:38;18.80;99.90
24148;DHT22;12309;51.450;-2.624;2023-05-07T10:09:04;18.80;99.90
24148;DHT22;12309;51.450;-2.624;2023-05-07T10:11:37;19.10;99.90
24148;DHT22;12309;51.450;-2.624;2023-05-07T10:14:03;18.70;99.90
24148;DHT22;12309;51.450;-2.624;2023-05-07T10:16:32;19.00;99.90
24148;DHT22;12309;51.450;-2.624;2023-05-07T10:19:05;18.60;99.90
24148;DHT22;12309;51.450;-2.624;2023-05-07T10:21:36;18.30;99.90
24148;DHT22;12309;51.450;-2.624;2023-05-07T10:24:23;18.30;99.90
24148;DHT22;12309;51.450;-2.624;2023-05-07T10:26:52;18.40;99.90
24148;DHT22;12309;51.450;-2.624;2023-05-07T10:32:18;19.40;99.90
24148;DHT22;12309;51.450;-2.624;2023-05-07T10:34:48;20.20;99.90
24148;DHT22;12309;51.450;-2.624;2023-05-07T10:37:16;19.60;99.90
24148;DHT22;12309;51.450;-2.624;2023-05-07T10:39:42;19.90;99.90
24148;DHT22;12309;51.450;-2.624;2023-05-07T10:42:13;21.10;99.90
24148;DHT22;12309;51.450;-2.624;2023-05-07T10:44:41;21.10;99.90
24148;DHT22;12309;51.450;-2.624;2023-05-07T10:47:14;19.20;73.40
24148;DHT22;12309;51.450;-2.624;2023-05-07T10:52:23;20.30;1.00
24148;DHT22;12309;51.450;-2.624;2023-05-07T10:57:45;21.10;99.90
24148;DHT22;12309;51.450;-2.624;2023-05-07T11:05:30;22.20;99.90
24148;DHT22;12309;51.450;-2.624;2023-05-07T11:08:00;22.20;1.00
24148;DHT22;12309;51.450;-2.624;2023-05-07T11:10:48;22.40;1.00
24148;DHT22;12309;51.450;-2.624;2023-05-07T11:13:15;23.20;1.00
24148;DHT22;12309;51.450;-2.624;2023-05-07T11:15:46;23.20;70.30
24148;DHT22;12309;51.450;-2.624;2023-05-07T11:18:16;23.90;4.70
24148;DHT22;12309;51.450;-2.624;2023-05-07T11:20:46;23.60;1.00
24148;DHT22;12309;51.450;-2.624;2023-05-07T11:26:05;24.80;99.90
24148;DHT22;12309;51.450;-2.624;2023-05-07T11:28:39;23.60;99.90
24148;DHT22;12309;51.450;-2.624;2023-05-07T11:31:05;23.30;99.90
24148;DHT22;12309;51.450;-2.624;2023-05-07T11:33:33;22.70;99.90
24148;DHT22;12309;51.450;-2.624;2023-05-07T11:36:01;22.60;99.90
24148;DHT22;12309;51.450;-2.624;2023-05-07T11:38:29;22.90;99.90
24148;DHT22;12309;51.450;-2.624;2023-05-07T11:40:58;22.40;99.90
24148;DHT22;12309;51.450;-2.624;2023-05-07T11:43:28;21.80;99.90
24148;DHT22;12309;51.450;-2.624;2023-05-07T11:45:53;20.80;1.00
24148;DHT22;12309;51.450;-2.624;2023-05-07T11:48:21;20.80;1.00
24148;DHT22;12309;51.450;-2.624;2023-05-07T11:51:01;21.20;1.00
24148;DHT22;12309;51.450;-2.624;2023-05-07T11:53:33;21.30;1.00
24148;DHT22;12309;51.450;-2.624;2023-05-07T11:56:00;22.00;1.00
24148;DHT22;12309;51.450;-2.624;2023-05-07T11:58:26;22.50;78.30
24148;DHT22;12309;51.450;-2.624;2023-05-07T12:00:53;22.50;1.00
24148;DHT22;12309;51.450;-2.624;2023-05-07T12:03:19;22.30;1.00
24148;DHT22;12309;51.450;-2.624;2023-05-07T12:05:46;22.70;1.00
24148;DHT22;12309;51.450;-2.624;2023-05-07T12:08:15;23.20;12.90
24148;DHT22;12309;51.450;-2.624;2023-05-07T12:10:45;23.80;1.00
24148;DHT22;12309;51.450;-2.624;2023-05-07T12:13:21;23.30;99.90
24148;DHT22;12309;51.450;-2.624;2023-05-07T12:15:51;22.40;1.00
24148;DHT22;12309;51.450;-2.624;2023-05-07T12:18:16;22.10;1.00
24148;DHT22;12309;51.450;-2.624;2023-05-07T12:20:42;22.80;99.90
24148;DHT22;12309;51.450;-2.624;2023-05-07T12:23:08;23.10;1.00
24148;DHT22;12309;51.450;-2.624;2023-05-07T12:25:35;23.30;1.00
24148;DHT22;12309;51.450;-2.624;2023-05-07T12:28:04;23.70;1.00
24148;DHT22;12309;51.450;-2.624;2023-05-07T12:30:39;23.00;1.00
24148;DHT22;12309;51.450;-2.624;2023-05-07T12:33:05;22.50;1.00
24148;DHT22;12309;51.450;-2.624;2023-05-07T12:35:32;22.60;1.00
24148;DHT22;12309;51.450;-2.624;2023-05-07T12:38:01;23.00;99.90
24148;DHT22;12309;51.450;-2.624;2023-05-07T12:40:37;23.50;74.20
24148;DHT22;12309;51.450;-2.624;2023-05-07T12:43:03;23.60;1.00
24148;DHT22;12309;51.450;-2.624;2023-05-07T12:45:28;23.40;1.00
24148;DHT22;12309;51.450;-2.624;2023-05-07T12:47:54;22.80;99.90
24148;DHT22;12309;51.450;-2.624;2023-05-07T12:50:20;22.80;26.70
24148;DHT22;12309;51.450;-2.624;2023-05-07T12:52:49;23.00;1.00
24148;DHT22;12309;51.450;-2.624;2023-05-07T12:55:15;23.90;1.00
24148;DHT22;12309;51.450;-2.624;2023-05-07T12:57:43;23.60;1.00
24148;DHT22;12309;51.450;-2.624;2023-05-07T13:00:11;23.20;1.00
24148;DHT22;12309;51.450;-2.624;2023-05-07T13:02:42;23.80;1.00
24148;DHT22;12309;51.450;-2.624;2023-05-07T13:05:09;23.90;1.00
24148;DHT22;12309;51.450;-2.624;2023-05-07T13:07:35;23.50;99.90
24148;DHT22;12309;51.450;-2.624;2023-05-07T13:10:02;22.70;1.00
24148;DHT22;12309;51.450;-2.624;2023-05-07T13:12:28;22.30;1.00
24148;DHT22;12309;51.450;-2.624;2023-05-07T13:14:53;22.40;99.90
24148;DHT22;12309;51.450;-2.624;2023-05-07T13:17:19;22.80;1.00
24148;DHT22;12309;51.450;-2.624;2023-05-07T13:19:45;22.90;99.90
24148;DHT22;12309;51.450;-2.624;2023-05-07T13:22:10;21.90;1.00
24148;DHT22;12309;51.450;-2.624;2023-05-07T13:24:36;23.00;99.90
24148;DHT22;12309;51.450;-2.624;2023-05-07T13:27:02;22.90;99.90
24148;DHT22;12309;51.450;-2.624;2023-05-07T13:29:28;23.70;94.50
24148;DHT22;12309;51.450;-2.624;2023-05-07T13:31:56;24.40;1.00
24148;DHT22;12309;51.450;-2.624;2023-05-07T13:34:22;23.90;1.00
24148;DHT22;12309;51.450;-2.624;2023-05-07T13:36:47;23.30;1.00
24148;DHT22;12309;51.450;-2.624;2023-05-07T13:39:13;23.60;1.00
24148;DHT22;12309;51.450;-2.624;2023-05-07T13:41:39;24.10;1.00
24148;DHT22;12309;51.450;-2.624;2023-05-07T13:44:05;22.50;1.00
24148;DHT22;12309;51.450;-2.624;2023-05-07T13:46:30;22.20;1.00
24148;DHT22;12309;51.450;-2.624;2023-05-07T13:48:56;22.40;2.30
24148;DHT22;12309;51.450;-2.624;2023-05-07T13:51:22;22.40;81.40
24148;DHT22;12309;51.450;-2.624;2023-05-07T13:53:48;23.20;1.00
24148;DHT22;12309;51.450;-2.624;2023-05-07T13:56:14;23.40;1.00
24148;DHT22;12309;51.450;-2.624;2023-05-07T13:58:40;23.30;1.00
24148;DHT22;12309;51.450;-2.624;2023-05-07T14:01:05;24.40;1.00
24148;DHT22;12309;51.450;-2.624;2023-05-07T14:03:31;24.90;99.90
24148;DHT22;12309;51.450;-2.624;2023-05-07T14:05:59;24.50;99.90
24148;DHT22;12309;51.450;-2.624;2023-05-07T14:08:25;24.70;62.10
24148;DHT22;12309;51.450;-2.624;2023-05-07T14:10:51;23.70;1.00
24148;DHT22;12309;51.450;-2.624;2023-05-07T14:13:17;23.70;53.80
24148;DHT22;12309;51.450;-2.624;2023-05-07T14:15:43;24.40;86.20
24148;DHT22;12309;51.450;-2.624;2023-05-07T14:18:12;23.90;33.40
24148;DHT22;12309;51.450;-2.624;2023-05-07T14:20:38;23.40;81.30
24148;DHT22;12309;51.450;-2.624;2023-05-07T14:23:04;23.60;76.10
24148;DHT22;12309;51.450;-2.624;2023-05-07T14:25:29;24.20;90.10
24148;DHT22;12309;51.450;-2.624;2023-05-07T14:27:55;25.20;1.00
24148;DHT22;12309;51.450;-2.624;2023-05-07T14:30:21;25.10;1.00
24148;DHT22;12309;51.450;-2.624;2023-05-07T14:32:50;24.40;1.00
24148;DHT22;12309;51.450;-2.624;2023-05-07T14:35:16;23.80;1.00
24148;DHT22;12309;51.450;-2.624;2023-05-07T14:37:42;24.20;78.90
24148;DHT22;12309;51.450;-2.624;2023-05-07T14:40:08;25.10;1.00
24148;DHT22;12309;51.450;-2.624;2023-05-07T14:42:34;25.00;1.00
24148;DHT22;12309;51.450;-2.624;2023-05-07T14:44:59;25.10;1.00
24148;DHT22;12309;51.450;-2.624;2023-05-07T14:47:25;25.00;1.00
24148;DHT22;12309;51.450;-2.624;2023-05-07T14:49:51;24.50;1.00
24148;DHT22;12309;51.450;-2.624;2023-05-07T14:52:16;24.60;1.00
24148;DHT22;12309;51.450;-2.624;2023-05-07T14:54:42;25.20;1.00
24148;DHT22;12309;51.450;-2.624;2023-05-07T14:57:09;24.90;1.00
24148;DHT22;12309;51.450;-2.624;2023-05-07T14:59:35;24.20;1.00
24148;DHT22;12309;51.450;-2.624;2023-05-07T15:02:01;23.90;68.30
24148;DHT22;12309;51.450;-2.624;2023-05-07T15:04:26;23.60;11.50
24148;DHT22;12309;51.450;-2.624;2023-05-07T15:06:52;24.50;1.00
24148;DHT22;12309;51.450;-2.624;2023-05-07T15:09:19;24.30;1.00
24148;DHT22;12309;51.450;-2.624;2023-05-07T15:11:45;23.70;1.00
24148;DHT22;12309;51.450;-2.624;2023-05-07T15:14:10;23.70;31.40
24148;DHT22;12309;51.450;-2.624;2023-05-07T15:16:36;23.60;1.00
24148;DHT22;12309;51.450;-2.624;2023-05-07T15:19:01;23.10;18.40
24148;DHT22;12309;51.450;-2.624;2023-05-07T15:21:27;23.40;99.90
24148;DHT22;12309;51.450;-2.624;2023-05-07T15:23:53;23.20;99.90
24148;DHT22;12309;51.450;-2.624;2023-05-07T15:26:18;23.10;99.90
24148;DHT22;12309;51.450;-2.624;2023-05-07T15:28:44;23.10;99.90
24148;DHT22;12309;51.450;-2.624;2023-05-07T15:31:10;22.70;99.90
24148;DHT22;12309;51.450;-2.624;2023-05-07T15:33:36;23.00;1.00
24148;DHT22;12309;51.450;-2.624;2023-05-07T15:36:01;23.60;99.90
24148;DHT22;12309;51.450;-2.624;2023-05-07T15:38:28;24.30;1.00
24148;DHT22;12309;51.450;-2.624;2023-05-07T15:40:54;24.20;1.00
24148;DHT22;12309;51.450;-2.624;2023-05-07T15:43:20;24.10;1.00
24148;DHT22;12309;51.450;-2.624;2023-05-07T15:45:46;24.40;1.00